Time;durP1;ratioP1;P1;durP2;ratioP2;P2;SDS_P1;SDS_P2;PMS_P1;PMS_P2;Temp;Humidity;BMP_temperature;BMP_pressure;BME280_temperature;BME280_humidity;BME280_pressure;Samples;Min_cycle;Max_cycle;Signal;HPM_P1;HPM_P2
2020/12/26 00:00:19;;;;;;;11.10;5.53;;;5.00;86.90;;;;;;5053035;28;20025;-74
2020/12/26 00:02:46;;;;;;;9.13;5.72;;;5.00;86.60;;;;;;5053673;28;20037;-72
2020/12/26 00:05:12;;;;;;;8.43;5.22;;;5.00;86.30;;;;;;5053097;28;20411;-74
2020/12/26 00:07:38;;;;;;;9.57;5.93;;;5.00;86.10;;;;;;5054358;28;20020;-75
2020/12/26 00:10:04;;;;;;;7.47;4.75;;;4.90;86.20;;;;;;5038645;28;20044;-74
2020/12/26 00:12:30;;;;;;;9.60;5.20;;;4.90;86.20;;;;;;5056249;28;20032;-74
2020/12/26 00:14:56;;;;;;;10.85;5.63;;;4.90;86.40;;;;;;5057216;28;20429;-74
2020/12/26 00:17:23;;;;;;;10.40;5.63;;;4.90;86.60;;;;;;5056700;28;20028;-74
2020/12/26 00:19:48;;;;;;;9.45;5.35;;;5.00;86.60;;;;;;5056772;28;20467;-74
2020/12/26 00:22:14;;;;;;;9.85;5.43;;;5.00;86.70;;;;;;5056576;28;20029;-73
2020/12/26 00:24:40;;;;;;;7.65;4.85;;;5.00;86.60;;;;;;5056005;28;20083;-73
2020/12/26 00:27:06;;;;;;;8.73;5.22;;;5.00;86.70;;;;;;5056462;28;20017;-74
2020/12/26 00:29:31;;;;;;;9.05;5.05;;;5.00;86.50;;;;;;5056312;28;20025;-73
2020/12/26 00:31:57;;;;;;;9.18;5.18;;;5.00;86.60;;;;;;5056074;28;20401;-75
2020/12/26 00:34:23;;;;;;;8.27;4.63;;;5.00;86.70;;;;;;5055927;28;20025;-74
2020/12/26 00:36:49;;;;;;;9.60;5.53;;;5.00;86.60;;;;;;5056180;28;20037;-74
2020/12/26 00:39:15;;;;;;;8.38;5.05;;;5.00;86.50;;;;;;5056683;28;20112;-73
2020/12/26 00:41:40;;;;;;;11.38;5.60;;;5.00;86.70;;;;;;5054521;28;20433;-74
2020/12/26 00:44:06;;;;;;;7.03;5.53;;;5.00;86.60;;;;;;5056320;28;20025;-74
2020/12/26 00:46:32;;;;;;;8.98;4.93;;;5.00;86.50;;;;;;5056312;28;20025;-73
2020/12/26 00:48:57;;;;;;;6.50;4.03;;;5.00;86.70;;;;;;5056039;28;20029;-73
2020/12/26 00:51:23;;;;;;;5.78;4.28;;;5.00;86.70;;;;;;5055820;28;20021;-74
2020/12/26 00:53:49;;;;;;;8.60;4.50;;;5.00;86.50;;;;;;5055965;28;20461;-73
2020/12/26 00:56:14;;;;;;;6.47;3.85;;;5.00;86.60;;;;;;5055567;28;20028;-74
2020/12/26 00:58:40;;;;;;;7.05;4.40;;;5.10;86.60;;;;;;5055514;28;20021;-74
2020/12/26 01:01:05;;;;;;;7.15;4.18;;;5.10;86.60;;;;;;5054544;28;20024;-73
2020/12/26 01:03:31;;;;;;;6.85;4.35;;;5.10;86.40;;;;;;5055498;28;20051;-73
2020/12/26 01:05:57;;;;;;;6.93;4.63;;;5.10;86.30;;;;;;5056195;28;20056;-73
2020/12/26 01:08:22;;;;;;;6.55;4.30;;;5.20;86.40;;;;;;5054583;28;20021;-72
2020/12/26 01:10:48;;;;;;;7.03;3.78;;;5.20;86.30;;;;;;5055211;28;20045;-74
2020/12/26 01:13:16;;;;;;;9.82;4.38;;;5.10;86.00;;;;;;5055097;28;20064;-74
2020/12/26 01:15:41;;;;;;;7.60;4.40;;;5.20;86.20;;;;;;5055443;28;20024;-73
2020/12/26 01:18:07;;;;;;;6.30;3.53;;;5.20;86.10;;;;;;5055214;28;20030;-73
2020/12/26 01:20:33;;;;;;;4.78;3.45;;;5.20;86.00;;;;;;5054912;28;20028;-74
2020/12/26 01:22:58;;;;;;;8.23;4.32;;;5.20;85.70;;;;;;5055355;28;20492;-73
2020/12/26 01:25:24;;;;;;;7.53;4.20;;;5.10;85.50;;;;;;5055279;28;20021;-73
2020/12/26 01:27:49;;;;;;;6.07;4.07;;;5.10;85.50;;;;;;5055548;28;20382;-73
2020/12/26 01:30:15;;;;;;;8.15;4.20;;;5.10;85.40;;;;;;5054005;28;20090;-74
2020/12/26 01:32:41;;;;;;;8.30;5.20;;;5.10;85.40;;;;;;5054743;28;20032;-74
2020/12/26 01:35:06;;;;;;;7.28;4.80;;;5.10;85.60;;;;;;5055159;28;20025;-73
2020/12/26 01:37:32;;;;;;;7.30;4.43;;;5.10;85.60;;;;;;5054306;28;20075;-73
2020/12/26 01:39:58;;;;;;;6.70;4.38;;;5.10;85.80;;;;;;5053978;28;20369;-74
2020/12/26 01:42:23;;;;;;;8.55;4.35;;;5.10;85.60;;;;;;5053705;28;20039;-73
2020/12/26 01:44:50;;;;;;;6.50;4.50;;;5.10;85.50;;;;;;5054813;28;20025;-74
2020/12/26 01:47:16;;;;;;;6.78;4.70;;;5.10;85.40;;;;;;5054920;28;20361;-74
2020/12/26 01:49:43;;;;;;;9.30;4.82;;;5.10;85.40;;;;;;5054777;28;20017;-73
2020/12/26 01:52:10;;;;;;;7.50;4.82;;;5.10;85.70;;;;;;5054267;28;20041;-73
2020/12/26 01:54:37;;;;;;;7.47;4.88;;;5.10;85.60;;;;;;5054715;28;20017;-73
2020/12/26 01:57:04;;;;;;;8.77;5.53;;;5.10;85.60;;;;;;5053434;28;20525;-73
2020/12/26 01:59:30;;;;;;;8.48;4.85;;;5.10;85.20;;;;;;5054582;28;20139;-73
2020/12/26 02:01:59;;;;;;;7.68;5.07;;;5.10;85.40;;;;;;5054598;28;20456;-74
2020/12/26 02:04:25;;;;;;;7.32;4.50;;;5.10;85.50;;;;;;5054855;28;20021;-73
2020/12/26 02:06:55;;;;;;;9.52;4.93;;;5.10;85.40;;;;;;5054539;28;20017;-73
2020/12/26 02:09:23;;;;;;;7.82;5.00;;;5.10;85.10;;;;;;5054534;28;20436;-74
2020/12/26 02:11:49;;;;;;;7.80;4.75;;;5.10;85.10;;;;;;5054849;28;20064;-73
2020/12/26 02:14:15;;;;;;;8.82;5.03;;;5.10;85.10;;;;;;5054074;28;20056;-73
2020/12/26 02:16:47;;;;;;;8.57;5.00;;;5.10;85.20;;;;;;5054405;28;20083;-74
2020/12/26 02:19:14;;;;;;;9.55;5.50;;;5.10;85.00;;;;;;5054580;28;20103;-73
2020/12/26 02:21:41;;;;;;;8.02;5.40;;;5.10;84.90;;;;;;5054630;28;20407;-74
2020/12/26 02:24:07;;;;;;;8.25;4.95;;;5.10;85.00;;;;;;5053963;28;20449;-73
2020/12/26 02:26:33;;;;;;;8.70;4.95;;;5.10;85.10;;;;;;5054057;28;20096;-74
2020/12/26 02:28:59;;;;;;;7.82;5.13;;;5.10;85.10;;;;;;5054619;28;20025;-74
2020/12/26 02:31:25;;;;;;;6.75;4.70;;;5.20;85.20;;;;;;5052601;28;20025;-74
2020/12/26 02:33:51;;;;;;;7.25;4.55;;;5.20;85.10;;;;;;5052838;28;20487;-74
2020/12/26 02:36:17;;;;;;;8.75;4.80;;;5.20;85.20;;;;;;5053723;28;20021;-73
2020/12/26 02:38:43;;;;;;;9.48;5.22;;;5.20;85.40;;;;;;5054228;28;20032;-73
2020/12/26 02:41:09;;;;;;;9.13;4.90;;;5.30;85.30;;;;;;5052030;28;20021;-73
2020/12/26 02:43:35;;;;;;;8.93;4.50;;;5.30;85.10;;;;;;5069383;28;20044;-72
2020/12/26 02:46:01;;;;;;;8.60;4.63;;;5.30;85.10;;;;;;5054199;28;20025;-74
2020/12/26 02:48:26;;;;;;;7.72;4.53;;;5.40;85.20;;;;;;5053923;28;20174;-74
2020/12/26 02:50:53;;;;;;;11.10;5.43;;;5.40;84.90;;;;;;5052626;28;20448;-74
2020/12/26 02:53:19;;;;;;;9.15;5.03;;;5.40;84.80;;;;;;5052551;28;20033;-74
2020/12/26 02:55:44;;;;;;;8.48;4.78;;;5.40;84.80;;;;;;5073112;28;20020;-73
2020/12/26 02:58:10;;;;;;;8.27;4.55;;;5.40;84.50;;;;;;5077278;28;20013;-74
2020/12/26 03:00:36;;;;;;;8.55;4.93;;;5.50;84.60;;;;;;5078006;28;20028;-73
2020/12/26 03:03:03;;;;;;;8.32;4.95;;;5.50;84.80;;;;;;5078449;28;20017;-75
2020/12/26 03:05:28;;;;;;;6.82;4.35;;;5.50;84.70;;;;;;5078401;28;20017;-72
2020/12/26 03:07:54;;;;;;;8.38;4.55;;;5.60;84.40;;;;;;5058822;28;20028;-73
2020/12/26 03:10:20;;;;;;;7.10;4.47;;;5.60;84.00;;;;;;5055329;28;20103;-73
2020/12/26 03:12:46;;;;;;;6.93;4.45;;;5.60;83.70;;;;;;5055050;28;20489;-74
2020/12/26 03:15:11;;;;;;;6.88;4.40;;;5.50;83.80;;;;;;5054945;28;20032;-74
2020/12/26 03:17:37;;;;;;;9.68;4.40;;;5.60;84.20;;;;;;5054560;28;20028;-73
2020/12/26 03:20:05;;;;;;;8.27;4.95;;;5.60;83.80;;;;;;5052768;28;20021;-72
2020/12/26 03:22:31;;;;;;;6.63;4.20;;;5.60;83.70;;;;;;5053272;28;20350;-73
2020/12/26 03:24:58;;;;;;;6.10;4.32;;;5.60;83.80;;;;;;5053515;28;20036;-74
2020/12/26 03:27:24;;;;;;;8.65;5.45;;;5.60;83.50;;;;;;5053790;28;20078;-74
2020/12/26 03:29:51;;;;;;;10.57;4.97;;;5.50;83.20;;;;;;5053373;28;20023;-73
2020/12/26 03:32:17;;;;;;;8.23;4.90;;;5.50;83.20;;;;;;5053393;28;20083;-73
2020/12/26 03:34:43;;;;;;;11.27;6.22;;;5.50;82.90;;;;;;5051985;28;20025;-74
2020/12/26 03:37:09;;;;;;;11.35;5.93;;;5.40;82.70;;;;;;5053575;28;20017;-74
2020/12/26 03:39:37;;;;;;;9.30;5.82;;;5.40;82.80;;;;;;5053370;28;20055;-74
2020/12/26 03:42:08;;;;;;;9.60;6.30;;;5.40;83.00;;;;;;5054242;28;20096;-74
2020/12/26 03:44:34;;;;;;;10.88;5.13;;;5.40;83.00;;;;;;5056898;28;20024;-73
2020/12/26 03:47:00;;;;;;;9.00;5.80;;;5.30;83.00;;;;;;5057172;28;20507;-73
2020/12/26 03:49:26;;;;;;;10.13;5.55;;;5.30;82.80;;;;;;5057540;28;20025;-73
2020/12/26 03:51:53;;;;;;;8.50;4.85;;;5.30;83.00;;;;;;5055718;28;20465;-73
2020/12/26 03:54:19;;;;;;;8.15;4.80;;;5.30;82.80;;;;;;5057248;28;20048;-72
2020/12/26 03:56:45;;;;;;;7.57;4.85;;;5.30;83.00;;;;;;5055757;28;20119;-75
2020/12/26 03:59:11;;;;;;;9.23;4.82;;;5.30;83.10;;;;;;5057015;28;20017;-74
2020/12/26 04:01:37;;;;;;;10.15;5.22;;;5.30;83.10;;;;;;5056883;28;20021;-75
2020/12/26 04:04:03;;;;;;;10.73;5.15;;;5.30;82.90;;;;;;5057174;28;20021;-73
2020/12/26 04:06:29;;;;;;;8.48;4.88;;;5.30;83.50;;;;;;5056546;28;20027;-72
2020/12/26 04:08:55;;;;;;;7.82;5.28;;;5.30;83.20;;;;;;5057029;28;20025;-72
2020/12/26 04:11:20;;;;;;;9.18;5.38;;;5.20;82.70;;;;;;5056504;28;20052;-73
2020/12/26 04:13:46;;;;;;;8.77;5.20;;;5.20;82.60;;;;;;5056267;28;20041;-74
2020/12/26 04:16:12;;;;;;;9.88;5.45;;;5.20;82.50;;;;;;5055300;28;20075;-73
2020/12/26 04:18:38;;;;;;;10.38;5.93;;;5.20;82.30;;;;;;5056297;28;20095;-73
2020/12/26 04:21:04;;;;;;;10.60;5.80;;;5.20;82.40;;;;;;5056469;28;20066;-74
2020/12/26 04:23:30;;;;;;;9.95;5.90;;;5.20;82.60;;;;;;5056485;28;20029;-72
2020/12/26 04:25:55;;;;;;;12.27;6.47;;;5.10;82.50;;;;;;5056179;28;20368;-73
2020/12/26 04:28:21;;;;;;;12.40;5.38;;;5.10;82.60;;;;;;5056299;28;20025;-74
2020/12/26 04:30:47;;;;;;;9.13;5.18;;;5.10;82.60;;;;;;5055941;28;20056;-72
2020/12/26 04:33:12;;;;;;;10.45;6.28;;;5.10;82.40;;;;;;5055916;28;20032;-74
2020/12/26 04:35:38;;;;;;;11.30;5.82;;;5.10;82.40;;;;;;5056170;28;20035;-73
2020/12/26 04:38:04;;;;;;;11.73;6.00;;;5.10;82.00;;;;;;5056404;28;20072;-74
2020/12/26 04:40:29;;;;;;;9.88;5.93;;;5.00;81.90;;;;;;5054798;28;20040;-72
2020/12/26 04:42:58;;;;;;;10.15;6.28;;;5.00;82.20;;;;;;5056063;28;20021;-73
2020/12/26 04:45:24;;;;;;;11.45;6.57;;;5.00;82.30;;;;;;5055799;28;20071;-73
2020/12/26 04:47:58;;;;;;;13.20;6.88;;;5.00;82.50;;;;;;5054699;28;20411;-73
2020/12/26 04:50:28;;;;;;;14.15;7.80;;;5.00;82.60;;;;;;5055360;28;20380;-73
2020/12/26 04:53:06;;;;;;;11.43;5.90;;;5.00;82.60;;;;;;5055157;28;20033;-75
2020/12/26 04:55:33;;;;;;;10.90;5.88;;;5.00;82.50;;;;;;5055257;28;20060;-74
2020/12/26 04:58:09;;;;;;;8.73;5.60;;;5.00;82.60;;;;;;5055678;28;20021;-74
2020/12/26 05:00:36;;;;;;;9.57;5.47;;;5.10;82.60;;;;;;5055492;28;20413;-74
2020/12/26 05:03:05;;;;;;;9.18;5.20;;;5.10;82.70;;;;;;5055229;28;20103;-73
2020/12/26 05:05:34;;;;;;;9.43;5.40;;;5.10;82.50;;;;;;5055513;28;20039;-74
2020/12/26 05:08:11;;;;;;;8.80;5.63;;;5.20;82.70;;;;;;5055185;28;20098;-73
2020/12/26 05:10:38;;;;;;;25.58;10.93;;;5.20;82.70;;;;;;5055409;28;20057;-74
2020/12/26 05:13:08;;;;;;;32.63;14.45;;;5.20;82.50;;;;;;5055235;28;20025;-73
2020/12/26 05:15:37;;;;;;;24.58;11.10;;;5.20;82.20;;;;;;5054159;28;20417;-73
2020/12/26 05:18:04;;;;;;;26.15;12.20;;;5.20;82.20;;;;;;5055410;28;20017;-74
2020/12/26 05:20:30;;;;;;;17.13;8.73;;;5.20;82.20;;;;;;5055615;28;20021;-74
2020/12/26 05:23:13;;;;;;;14.25;7.68;;;5.20;82.20;;;;;;5054971;28;20123;-73
2020/12/26 05:25:40;;;;;;;14.40;7.82;;;5.20;82.00;;;;;;5054072;28;20060;-73
2020/12/26 05:28:19;;;;;;;12.02;6.90;;;5.20;81.80;;;;;;5054131;28;20048;-73
2020/12/26 05:30:47;;;;;;;15.52;8.35;;;5.20;81.70;;;;;;5055040;28;20017;-73
2020/12/26 05:33:13;;;;;;;12.95;7.50;;;5.10;82.10;;;;;;5054679;28;20527;-74
2020/12/26 05:35:42;;;;;;;14.60;7.63;;;5.10;81.70;;;;;;5054281;28;20104;-74
2020/12/26 05:38:26;;;;;;;14.02;7.53;;;5.10;81.70;;;;;;5055226;28;20021;-75
2020/12/26 05:40:57;;;;;;;12.02;7.07;;;5.10;81.70;;;;;;5054952;28;20060;-73
2020/12/26 05:43:27;;;;;;;14.20;8.27;;;5.00;81.60;;;;;;5054697;28;20084;-73
2020/12/26 05:45:53;;;;;;;10.57;6.38;;;5.00;81.60;;;;;;5054833;28;20071;-74
2020/12/26 05:48:21;;;;;;;10.40;7.10;;;5.00;81.50;;;;;;5054439;28;20029;-73
2020/12/26 05:50:47;;;;;;;9.20;5.55;;;5.00;81.50;;;;;;5054691;28;20021;-74
2020/12/26 05:53:15;;;;;;;11.30;6.88;;;5.00;81.20;;;;;;5055344;28;20037;-73
2020/12/26 05:55:42;;;;;;;10.23;6.15;;;5.00;81.20;;;;;;5054928;28;20024;-73
2020/12/26 05:58:09;;;;;;;13.27;5.90;;;4.90;81.10;;;;;;5053442;28;20415;-74
2020/12/26 06:00:42;;;;;;;10.13;5.38;;;4.90;81.20;;;;;;5054637;28;20025;-74
2020/12/26 06:03:26;;;;;;;12.57;6.53;;;4.80;81.00;;;;;;5054071;28;20515;-74
2020/12/26 06:05:54;;;;;;;10.65;6.40;;;4.80;81.60;;;;;;5053911;28;20021;-74
2020/12/26 06:08:20;;;;;;;10.23;5.88;;;4.80;81.50;;;;;;5054599;28;20028;-74
2020/12/26 06:10:50;;;;;;;11.73;5.95;;;4.80;81.70;;;;;;5053070;28;20132;-74
2020/12/26 06:13:18;;;;;;;10.80;6.35;;;4.90;81.60;;;;;;5053867;28;20442;-73
2020/12/26 06:15:57;;;;;;;10.40;6.70;;;4.90;81.80;;;;;;5053423;28;20048;-72
2020/12/26 06:18:24;;;;;;;15.98;7.70;;;4.90;81.40;;;;;;5053879;28;20021;-73
2020/12/26 06:20:53;;;;;;;17.92;8.10;;;4.80;81.20;;;;;;5053337;28;20120;-73
2020/12/26 06:23:25;;;;;;;18.90;6.70;;;4.90;81.40;;;;;;5054544;28;20107;-72
2020/12/26 06:25:52;;;;;;;15.90;6.70;;;4.90;81.50;;;;;;5054273;28;20059;-74
2020/12/26 06:28:32;;;;;;;29.00;8.85;;;4.90;81.30;;;;;;5052873;28;20032;-73
2020/12/26 06:31:07;;;;;;;25.52;8.30;;;4.90;81.10;;;;;;5054428;28;20036;-74
2020/12/26 06:33:49;;;;;;;32.65;10.25;;;4.90;81.20;;;;;;5053888;28;20025;-73
2020/12/26 06:36:15;;;;;;;19.50;7.63;;;4.90;81.20;;;;;;5053576;28;20025;-73
2020/12/26 06:38:41;;;;;;;21.40;7.97;;;4.90;81.10;;;;;;5053761;28;20499;-76
2020/12/26 06:41:13;;;;;;;16.55;7.18;;;4.90;81.10;;;;;;5054552;28;20107;-74
2020/12/26 06:43:39;;;;;;;17.30;7.00;;;4.90;81.30;;;;;;5053788;28;20024;-73
2020/12/26 06:46:13;;;;;;;16.40;8.48;;;4.90;81.10;;;;;;5054141;28;20039;-76
2020/12/26 06:48:39;;;;;;;;;;;4.90;81.00;;;;;;5054541;28;20099;-74
2020/12/26 06:51:28;;;;;;;17.25;9.25;;;4.90;81.60;;;;;;5052842;28;19950;-75
2020/12/26 06:54:02;;;;;;;14.45;7.20;;;5.00;81.50;;;;;;5044872;28;20041;-74
2020/12/26 06:59:03;;;;;;;25.75;12.00;;;5.00;81.30;;;;;;5053387;28;20068;-73
2020/12/26 07:01:30;;;;;;;20.90;9.98;;;5.00;81.50;;;;;;5053334;28;20024;-75
2020/12/26 07:04:10;;;;;;;22.83;11.10;;;5.10;81.50;;;;;;5053496;28;20021;-76
2020/12/26 07:06:56;;;;;;;21.25;11.30;;;5.10;81.20;;;;;;5053576;28;20061;-75
2020/12/26 07:09:37;;;;;;;22.73;9.13;;;5.10;81.10;;;;;;5053357;28;20449;-73
2020/12/26 07:12:08;;;;;;;17.60;8.95;;;5.10;81.00;;;;;;5052115;28;20039;-74
2020/12/26 07:14:38;;;;;;;23.65;11.95;;;5.10;81.20;;;;;;5036473;28;20389;-75
2020/12/26 07:17:05;;;;;;;30.50;10.60;;;5.20;81.20;;;;;;5054177;28;20047;-74
2020/12/26 07:19:35;;;;;;;24.77;11.00;;;5.20;80.90;;;;;;5039934;28;20449;-76
2020/12/26 07:22:16;;;;;;;25.35;11.10;;;5.30;80.90;;;;;;5056731;28;20044;-74
2020/12/26 07:24:47;;;;;;;24.05;11.30;;;5.30;80.40;;;;;;5058039;28;20384;-73
2020/12/26 07:27:18;;;;;;;21.15;10.43;;;5.30;80.50;;;;;;5057346;28;20021;-74
2020/12/26 07:30:15;;;;;;;30.20;12.90;;;5.30;80.50;;;;;;5057744;28;20017;-73
2020/12/26 07:32:58;;;;;;;24.25;10.13;;;5.30;80.40;;;;;;5057697;28;20086;-74
2020/12/26 07:35:26;;;;;;;15.20;7.07;;;5.30;80.50;;;;;;5056203;28;20467;-75
2020/12/26 07:37:55;;;;;;;15.05;7.57;;;5.30;80.30;;;;;;5057579;28;20016;-74
2020/12/26 07:40:22;;;;;;;12.88;6.68;;;5.30;80.00;;;;;;5057347;28;20017;-74
2020/12/26 07:42:48;;;;;;;13.73;7.85;;;5.30;80.30;;;;;;5056934;28;20025;-75
2020/12/26 07:45:16;;;;;;;11.80;7.43;;;5.30;80.30;;;;;;5055573;28;20025;-74
2020/12/26 07:47:44;;;;;;;12.68;6.70;;;5.30;80.20;;;;;;5057694;28;20433;-73
2020/12/26 07:50:11;;;;;;;11.90;6.93;;;5.40;80.50;;;;;;5055765;28;20057;-73
2020/12/26 07:52:37;;;;;;;14.50;7.32;;;5.40;80.60;;;;;;5056640;28;20029;-74
2020/12/26 07:55:04;;;;;;;13.13;7.25;;;5.50;80.80;;;;;;5057086;28;20044;-75
2020/12/26 07:57:30;;;;;;;16.25;7.80;;;5.60;80.50;;;;;;5056512;28;20025;-76
2020/12/26 07:59:57;;;;;;;12.38;5.22;;;5.70;80.50;;;;;;5057019;28;20104;-76
2020/12/26 08:02:23;;;;;;;5.93;3.70;;;5.80;80.20;;;;;;5056634;28;20395;-75
2020/12/26 08:04:49;;;;;;;8.65;4.13;;;5.80;79.60;;;;;;5057052;28;20028;-76
2020/12/26 08:07:18;;;;;;;8.38;4.00;;;5.80;79.40;;;;;;5055593;28;20017;-76
2020/12/26 08:09:51;;;;;;;6.47;4.28;;;5.80;78.80;;;;;;5039585;28;20049;-79
2020/12/26 08:12:18;;;;;;;6.78;4.18;;;5.90;79.40;;;;;;5056701;28;20025;-75
2020/12/26 08:14:44;;;;;;;8.15;4.40;;;6.00;79.80;;;;;;5055414;28;20480;-75
2020/12/26 08:17:10;;;;;;;7.30;4.93;;;6.10;79.30;;;;;;5056813;28;20063;-75
2020/12/26 08:19:38;;;;;;;13.05;5.82;;;6.10;79.00;;;;;;5056497;28;20024;-75
2020/12/26 08:22:04;;;;;;;12.05;6.82;;;6.10;78.60;;;;;;5056672;28;20017;-74
2020/12/26 08:24:30;;;;;;;12.40;7.45;;;6.10;78.30;;;;;;5055419;28;20028;-75
2020/12/26 08:26:56;;;;;;;13.55;6.90;;;6.10;78.30;;;;;;5055251;28;20025;-75
2020/12/26 08:29:43;;;;;;;14.52;6.90;;;6.20;78.30;;;;;;5055418;28;20021;-76
2020/12/26 08:32:11;;;;;;;10.73;5.80;;;6.20;78.30;;;;;;5056572;28;20055;-77
2020/12/26 08:35:04;;;;;;;9.80;5.88;;;6.20;77.70;;;;;;5055150;28;20453;-78
2020/12/26 08:37:43;;;;;;;10.00;5.80;;;6.20;77.30;;;;;;5056539;28;20108;-76
2020/12/26 08:40:17;;;;;;;7.35;4.85;;;6.10;77.20;;;;;;5056720;28;20104;-77
2020/12/26 08:42:47;;;;;;;8.93;4.75;;;6.20;77.50;;;;;;5056347;28;20027;-77
2020/12/26 08:45:39;;;;;;;8.43;5.20;;;6.20;77.30;;;;;;5054924;28;20084;-77
2020/12/26 08:48:22;;;;;;;9.52;5.30;;;6.10;77.10;;;;;;5055501;28;20021;-77
2020/12/26 08:51:33;;;;;;;8.85;5.20;;;6.20;77.70;;;;;;5055340;28;20056;-76
2020/12/26 08:54:00;;;;;;;7.57;4.75;;;6.30;77.60;;;;;;5053894;28;20045;-76
2020/12/26 08:56:55;;;;;;;6.65;4.25;;;6.30;77.50;;;;;;5054560;28;20542;-76
2020/12/26 08:59:29;;;;;;;8.63;4.72;;;6.40;77.60;;;;;;5054665;28;20033;-76
2020/12/26 09:01:56;;;;;;;7.78;5.20;;;6.50;77.60;;;;;;5054979;28;20025;-76
2020/12/26 09:04:22;;;;;;;8.38;5.13;;;6.60;77.60;;;;;;5055441;28;20154;-74
2020/12/26 09:06:48;;;;;;;9.77;4.70;;;6.70;77.60;;;;;;5055461;28;20045;-76
2020/12/26 09:09:34;;;;;;;6.60;4.30;;;6.90;77.20;;;;;;5054634;28;20028;-75
2020/12/26 09:12:14;;;;;;;5.88;4.00;;;7.00;77.30;;;;;;5056290;28;20139;-74
2020/12/26 09:14:57;;;;;;;10.02;4.78;;;7.40;78.40;;;;;;5054670;28;20029;-77
2020/12/26 09:17:23;;;;;;;8.45;4.80;;;7.90;79.50;;;;;;5053955;28;20595;-76
2020/12/26 09:19:51;;;;;;;5.90;4.55;;;8.90;82.80;;;;;;5054227;28;20191;-75
2020/12/26 09:22:20;;;;;;;7.82;4.90;;;10.20;85.10;;;;;;5055283;28;20488;-75
2020/12/26 09:24:46;;;;;;;8.45;4.63;;;11.70;85.90;;;;;;5054037;28;20025;-76
2020/12/26 09:27:23;;;;;;;5.95;4.78;;;13.20;83.90;;;;;;5055162;28;20035;-77
2020/12/26 09:30:05;;;;;;;5.80;4.10;;;14.60;77.80;;;;;;5053525;28;20025;-77
2020/12/26 09:32:31;;;;;;;5.40;4.03;;;16.00;72.90;;;;;;5054720;28;20388;-75
2020/12/26 09:34:57;;;;;;;5.75;3.97;;;17.10;72.60;;;;;;5053972;28;20481;-74
2020/12/26 09:37:23;;;;;;;6.55;4.20;;;18.00;69.30;;;;;;5055830;28;20043;-75
2020/12/26 09:39:49;;;;;;;4.95;4.00;;;18.90;65.60;;;;;;5053174;28;20025;-76
2020/12/26 09:42:24;;;;;;;4.78;4.18;;;19.70;62.70;;;;;;5055814;28;20024;-75
2020/12/26 09:44:50;;;;;;;5.25;4.10;;;20.40;57.10;;;;;;5055374;28;20021;-75
2020/12/26 09:47:15;;;;;;;5.47;4.10;;;20.40;54.80;;;;;;5037307;28;20028;-76
2020/12/26 09:49:41;;;;;;;5.85;3.83;;;20.20;53.20;;;;;;5053955;28;20024;-76
2020/12/26 09:52:07;;;;;;;7.10;3.70;;;20.40;52.30;;;;;;5037006;28;20354;-76
2020/12/26 09:54:32;;;;;;;4.38;3.40;;;20.60;50.50;;;;;;5054711;28;20024;-75
2020/12/26 09:57:01;;;;;;;4.22;3.75;;;20.60;49.30;;;;;;5037244;28;20074;-78
2020/12/26 09:59:27;;;;;;;4.47;3.40;;;20.90;48.40;;;;;;5020575;28;20029;-75
2020/12/26 10:01:56;;;;;;;4.15;3.75;;;21.60;48.30;;;;;;5053035;28;20025;-78
2020/12/26 10:04:49;;;;;;;3.75;3.45;;;22.20;46.80;;;;;;5053240;28;20473;-79
2020/12/26 10:07:50;;;;;;;6.22;3.90;;;22.80;44.80;;;;;;5054636;28;20352;-79
2020/12/26 10:10:21;;;;;;;5.20;3.92;;;23.40;44.30;;;;;;5050094;28;20083;-77
2020/12/26 10:12:47;;;;;;;5.07;4.32;;;24.00;45.10;;;;;;5054008;28;20401;-77
2020/12/26 10:15:13;;;;;;;5.97;4.18;;;24.10;43.10;;;;;;5053243;28;20021;-76
2020/12/26 10:17:39;;;;;;;3.70;3.40;;;24.20;42.00;;;;;;5054157;28;20074;-77
2020/12/26 10:20:05;;;;;;;4.38;3.40;;;24.30;40.90;;;;;;5053994;28;20021;-77
2020/12/26 10:22:32;;;;;;;4.60;3.60;;;24.60;39.80;;;;;;5054139;28;20059;-75
2020/12/26 10:24:58;;;;;;;4.53;3.90;;;24.80;38.80;;;;;;5052846;28;20439;-75
2020/12/26 10:27:24;;;;;;;5.22;4.00;;;24.90;38.30;;;;;;5054173;28;20056;-76
2020/12/26 10:29:50;;;;;;;3.58;3.28;;;24.90;37.60;;;;;;5054243;28;20048;-76
2020/12/26 10:32:16;;;;;;;4.70;3.90;;;25.00;37.10;;;;;;5054251;28;20029;-76
2020/12/26 10:34:41;;;;;;;4.82;3.65;;;25.10;36.80;;;;;;5052913;28;20504;-76
2020/12/26 10:37:07;;;;;;;4.75;4.20;;;25.20;36.70;;;;;;5053968;28;20035;-76
2020/12/26 10:39:33;;;;;;;4.95;4.00;;;25.50;36.40;;;;;;5053019;28;20469;-76
2020/12/26 10:41:59;;;;;;;7.55;4.90;;;25.60;35.70;;;;;;5052783;28;20025;-76
2020/12/26 10:44:24;;;;;;;5.80;4.30;;;25.70;35.70;;;;;;5053623;28;20021;-75
2020/12/26 10:46:51;;;;;;;5.80;3.72;;;25.90;35.20;;;;;;5053330;28;20349;-76
2020/12/26 10:49:17;;;;;;;4.18;3.50;;;25.80;34.30;;;;;;5054023;28;20021;-75
2020/12/26 10:51:48;;;;;;;5.85;3.30;;;26.00;34.20;;;;;;5051933;28;20119;-76
2020/12/26 10:54:14;;;;;;;3.83;3.50;;;26.20;33.20;;;;;;5054341;28;20346;-75
2020/12/26 10:56:45;;;;;;;3.17;2.88;;;26.30;33.50;;;;;;5053034;28;20032;-78
2020/12/26 10:59:13;;;;;;;5.00;3.30;;;26.40;32.60;;;;;;5036158;28;20056;-75
2020/12/26 11:01:39;;;;;;;6.93;3.28;;;26.60;32.70;;;;;;5052732;28;20044;-78
2020/12/26 11:04:05;;;;;;;3.83;2.78;;;26.70;32.60;;;;;;5053448;28;20432;-76
2020/12/26 11:06:32;;;;;;;4.60;2.88;;;26.80;32.30;;;;;;5052627;28;20024;-77
2020/12/26 11:08:59;;;;;;;2.72;2.50;;;26.90;31.80;;;;;;5055223;28;20025;-77
2020/12/26 11:11:25;;;;;;;4.03;2.88;;;27.00;31.60;;;;;;5066818;28;20380;-76
2020/12/26 11:13:51;;;;;;;2.78;2.58;;;26.90;31.30;;;;;;5069741;28;20072;-77
2020/12/26 11:16:19;;;;;;;4.75;3.65;;;26.80;31.00;;;;;;5068972;28;20044;-77
2020/12/26 11:18:45;;;;;;;8.60;4.43;;;26.60;30.60;;;;;;5064011;28;20480;-76
2020/12/26 11:21:15;;;;;;;4.82;3.60;;;26.10;30.10;;;;;;5066488;28;20017;-78
2020/12/26 11:23:42;;;;;;;4.75;3.85;;;25.40;30.10;;;;;;5065019;28;20025;-76
2020/12/26 11:26:08;;;;;;;5.18;3.97;;;25.20;30.80;;;;;;5044822;28;20128;-80
2020/12/26 11:28:34;;;;;;;5.30;3.85;;;25.20;30.60;;;;;;5060218;28;20468;-76
2020/12/26 11:31:01;;;;;;;18.05;9.45;;;25.20;30.20;;;;;;5060266;28;20036;-76
2020/12/26 11:33:26;;;;;;;6.13;3.85;;;25.00;30.00;;;;;;5055809;28;20036;-76
2020/12/26 11:35:52;;;;;;;7.05;4.28;;;24.70;29.90;;;;;;5056171;28;20025;-75
2020/12/26 11:38:20;;;;;;;4.75;3.60;;;24.30;30.00;;;;;;5054718;28;20029;-77
2020/12/26 11:40:47;;;;;;;5.10;4.35;;;23.90;30.00;;;;;;5054064;28;20106;-77
2020/12/26 11:43:13;;;;;;;9.02;3.85;;;23.30;30.00;;;;;;5054411;28;20356;-77
2020/12/26 11:45:39;;;;;;;6.72;3.80;;;22.70;30.40;;;;;;5053632;28;20021;-76
2020/12/26 11:48:05;;;;;;;5.85;3.88;;;22.00;30.60;;;;;;5035951;28;20025;-78
2020/12/26 11:50:31;;;;;;;5.68;3.63;;;21.40;31.10;;;;;;5052022;28;20048;-78
2020/12/26 11:52:56;;;;;;;6.55;3.22;;;20.90;31.50;;;;;;5053226;28;20029;-76
2020/12/26 11:55:23;;;;;;;3.88;3.25;;;20.50;32.00;;;;;;5052338;28;20111;-76
2020/12/26 11:57:50;;;;;;;3.92;3.17;;;20.20;32.40;;;;;;5034815;28;20029;-76
2020/12/26 12:00:16;;;;;;;6.43;4.32;;;20.00;32.60;;;;;;5051816;28;20025;-76
2020/12/26 12:02:42;;;;;;;6.88;3.78;;;20.00;32.90;;;;;;5035199;28;20381;-77
2020/12/26 12:05:08;;;;;;;6.00;4.10;;;19.90;33.10;;;;;;5057291;28;20064;-77
2020/12/26 12:07:34;;;;;;;7.38;3.40;;;20.00;33.00;;;;;;5055379;28;20075;-75
2020/12/26 12:10:00;;;;;;;7.53;5.20;;;19.80;32.90;;;;;;5055210;28;20025;-76
2020/12/26 12:12:26;;;;;;;7.18;3.80;;;19.60;33.00;;;;;;5056669;28;20037;-77
2020/12/26 12:14:54;;;;;;;4.20;3.38;;;19.20;33.00;;;;;;5056169;28;20119;-76
2020/12/26 12:17:19;;;;;;;5.68;3.97;;;18.50;33.20;;;;;;5056582;28;20032;-74
2020/12/26 12:19:45;;;;;;;5.85;3.95;;;17.80;33.70;;;;;;5056588;28;20021;-74
2020/12/26 12:22:11;;;;;;;3.83;3.28;;;17.00;34.40;;;;;;5056929;28;20029;-75
2020/12/26 12:24:37;;;;;;;7.97;4.80;;;16.30;35.10;;;;;;5056691;28;20100;-76
2020/12/26 12:27:03;;;;;;;5.03;4.38;;;15.60;36.00;;;;;;5057551;28;20079;-75
2020/12/26 12:29:29;;;;;;;9.93;4.20;;;15.00;36.60;;;;;;5056840;28;20028;-74
2020/12/26 12:31:54;;;;;;;8.45;5.82;;;14.30;37.40;;;;;;5056455;28;20028;-76
2020/12/26 12:34:22;;;;;;;12.82;7.22;;;13.90;38.30;;;;;;5056164;28;20453;-75
2020/12/26 12:36:48;;;;;;;7.20;4.80;;;13.50;39.00;;;;;;5056402;28;20521;-76
2020/12/26 12:39:14;;;;;;;8.35;5.25;;;13.20;39.40;;;;;;5055116;28;20100;-75
2020/12/26 12:41:40;;;;;;;7.55;4.97;;;12.90;40.00;;;;;;5056093;28;20100;-75
2020/12/26 12:44:06;;;;;;;7.15;5.20;;;12.70;40.60;;;;;;5054872;28;20021;-76
2020/12/26 12:46:31;;;;;;;6.72;4.55;;;12.80;41.20;;;;;;5056199;28;20021;-76
2020/12/26 12:48:59;;;;;;;7.78;5.05;;;13.00;41.50;;;;;;5055126;28;20102;-76
2020/12/26 12:51:27;;;;;;;7.68;5.65;;;13.30;41.40;;;;;;5056045;28;20457;-75
2020/12/26 12:53:54;;;;;;;8.20;5.47;;;13.40;40.90;;;;;;5056089;28;20044;-75
2020/12/26 12:56:19;;;;;;;10.30;5.70;;;13.40;40.80;;;;;;5055685;28;20021;-74
2020/12/26 12:58:45;;;;;;;6.97;5.07;;;13.30;40.80;;;;;;5055935;28;20386;-74